sensor_id;sensor_type;location;lat;lon;timestamp;P1;durP1;ratioP1;P2;durP2;ratioP2
23782;SDS011;12071;50.850;4.446;2023-04-24T00:01:13;23.52;;;13.52;;
23782;SDS011;12071;50.850;4.446;2023-04-24T00:03:40;24.33;;;13.95;;
23782;SDS011;12071;50.850;4.446;2023-04-24T00:06:06;20.60;;;14.23;;
23782;SDS011;12071;50.850;4.446;2023-04-24T00:08:33;26.23;;;15.18;;
23782;SDS011;12071;50.850;4.446;2023-04-24T00:10:59;24.67;;;13.20;;
23782;SDS011;12071;50.850;4.446;2023-04-24T00:13:25;26.77;;;14.27;;
23782;SDS011;12071;50.850;4.446;2023-04-24T00:15:53;27.25;;;13.95;;
23782;SDS011;12071;50.850;4.446;2023-04-24T00:18:19;25.02;;;14.43;;
23782;SDS011;12071;50.850;4.446;2023-04-24T00:20:45;24.27;;;13.68;;
23782;SDS011;12071;50.850;4.446;2023-04-24T00:23:11;27.20;;;15.40;;
23782;SDS011;12071;50.850;4.446;2023-04-24T00:25:37;25.50;;;15.55;;
23782;SDS011;12071;50.850;4.446;2023-04-24T00:28:03;23.33;;;14.95;;
23782;SDS011;12071;50.850;4.446;2023-04-24T00:30:28;31.55;;;14.93;;
23782;SDS011;12071;50.850;4.446;2023-04-24T00:32:54;31.48;;;15.32;;
23782;SDS011;12071;50.850;4.446;2023-04-24T00:35:20;28.25;;;16.05;;
23782;SDS011;12071;50.850;4.446;2023-04-24T00:37:46;30.15;;;16.65;;
23782;SDS011;12071;50.850;4.446;2023-04-24T00:40:11;29.80;;;17.10;;
23782;SDS011;12071;50.850;4.446;2023-04-24T00:42:39;30.13;;;17.35;;
23782;SDS011;12071;50.850;4.446;2023-04-24T00:45:05;27.63;;;17.30;;
23782;SDS011;12071;50.850;4.446;2023-04-24T00:47:32;29.10;;;17.23;;
23782;SDS011;12071;50.850;4.446;2023-04-24T00:50:00;29.15;;;16.92;;
23782;SDS011;12071;50.850;4.446;2023-04-24T00:52:30;27.63;;;16.77;;
23782;SDS011;12071;50.850;4.446;2023-04-24T00:54:58;24.13;;;15.35;;
23782;SDS011;12071;50.850;4.446;2023-04-24T00:57:24;25.58;;;15.93;;
23782;SDS011;12071;50.850;4.446;2023-04-24T00:59:51;24.65;;;16.88;;
23782;SDS011;12071;50.850;4.446;2023-04-24T01:02:18;25.50;;;16.95;;
23782;SDS011;12071;50.850;4.446;2023-04-24T01:04:44;32.33;;;16.95;;
23782;SDS011;12071;50.850;4.446;2023-04-24T01:07:10;28.08;;;16.17;;
23782;SDS011;12071;50.850;4.446;2023-04-24T01:09:40;23.92;;;15.50;;
23782;SDS011;12071;50.850;4.446;2023-04-24T01:12:06;27.50;;;16.38;;
23782;SDS011;12071;50.850;4.446;2023-04-24T01:14:32;28.45;;;16.75;;
23782;SDS011;12071;50.850;4.446;2023-04-24T01:16:58;28.10;;;17.38;;
23782;SDS011;12071;50.850;4.446;2023-04-24T01:19:24;28.90;;;16.30;;
23782;SDS011;12071;50.850;4.446;2023-04-24T01:21:50;31.88;;;16.48;;
23782;SDS011;12071;50.850;4.446;2023-04-24T01:24:18;29.15;;;16.27;;
23782;SDS011;12071;50.850;4.446;2023-04-24T01:26:44;28.40;;;17.25;;
23782;SDS011;12071;50.850;4.446;2023-04-24T01:29:11;26.42;;;16.48;;
23782;SDS011;12071;50.850;4.446;2023-04-24T01:31:37;22.85;;;15.95;;
23782;SDS011;12071;50.850;4.446;2023-04-24T01:34:04;32.42;;;17.15;;
23782;SDS011;12071;50.850;4.446;2023-04-24T01:36:31;27.27;;;16.15;;
23782;SDS011;12071;50.850;4.446;2023-04-24T01:38:58;23.90;;;16.77;;
23782;SDS011;12071;50.850;4.446;2023-04-24T01:41:23;26.98;;;16.05;;
23782;SDS011;12071;50.850;4.446;2023-04-24T01:43:50;21.50;;;14.63;;
23782;SDS011;12071;50.850;4.446;2023-04-24T01:46:16;23.00;;;14.07;;
23782;SDS011;12071;50.850;4.446;2023-04-24T01:48:42;24.55;;;14.60;;
23782;SDS011;12071;50.850;4.446;2023-04-24T01:51:07;24.83;;;14.73;;
23782;SDS011;12071;50.850;4.446;2023-04-24T01:53:33;22.52;;;14.65;;
23782;SDS011;12071;50.850;4.446;2023-04-24T01:55:59;22.83;;;14.73;;
23782;SDS011;12071;50.850;4.446;2023-04-24T01:58:25;21.02;;;14.02;;
23782;SDS011;12071;50.850;4.446;2023-04-24T02:00:51;25.23;;;15.52;;
23782;SDS011;12071;50.850;4.446;2023-04-24T02:03:17;22.75;;;15.90;;
23782;SDS011;12071;50.850;4.446;2023-04-24T02:05:45;22.83;;;14.77;;
23782;SDS011;12071;50.850;4.446;2023-04-24T02:08:11;24.27;;;16.27;;
23782;SDS011;12071;50.850;4.446;2023-04-24T02:10:37;22.75;;;14.80;;
23782;SDS011;12071;50.850;4.446;2023-04-24T02:13:03;22.00;;;15.20;;
23782;SDS011;12071;50.850;4.446;2023-04-24T02:15:29;23.38;;;15.93;;
23782;SDS011;12071;50.850;4.446;2023-04-24T02:17:55;25.58;;;17.42;;
23782;SDS011;12071;50.850;4.446;2023-04-24T02:20:20;27.83;;;17.23;;
23782;SDS011;12071;50.850;4.446;2023-04-24T02:22:46;22.80;;;16.77;;
23782;SDS011;12071;50.850;4.446;2023-04-24T02:25:12;28.60;;;18.20;;
23782;SDS011;12071;50.850;4.446;2023-04-24T02:27:37;27.13;;;18.85;;
23782;SDS011;12071;50.850;4.446;2023-04-24T02:30:03;31.75;;;18.30;;
23782;SDS011;12071;50.850;4.446;2023-04-24T02:32:29;31.45;;;19.02;;
23782;SDS011;12071;50.850;4.446;2023-04-24T02:34:55;25.02;;;17.75;;
23782;SDS011;12071;50.850;4.446;2023-04-24T02:37:21;28.98;;;17.42;;
23782;SDS011;12071;50.850;4.446;2023-04-24T02:39:47;26.60;;;16.08;;
23782;SDS011;12071;50.850;4.446;2023-04-24T02:42:12;26.05;;;17.15;;
23782;SDS011;12071;50.850;4.446;2023-04-24T02:44:38;25.98;;;17.13;;
23782;SDS011;12071;50.850;4.446;2023-04-24T02:47:03;27.98;;;17.02;;
23782;SDS011;12071;50.850;4.446;2023-04-24T02:49:29;26.17;;;17.08;;
23782;SDS011;12071;50.850;4.446;2023-04-24T02:51:55;27.75;;;17.08;;
23782;SDS011;12071;50.850;4.446;2023-04-24T02:54:20;28.98;;;17.48;;
23782;SDS011;12071;50.850;4.446;2023-04-24T02:56:46;23.55;;;15.73;;
23782;SDS011;12071;50.850;4.446;2023-04-24T02:59:12;23.20;;;17.05;;
23782;SDS011;12071;50.850;4.446;2023-04-24T03:01:37;24.02;;;16.42;;
23782;SDS011;12071;50.850;4.446;2023-04-24T03:04:03;22.27;;;16.20;;
23782;SDS011;12071;50.850;4.446;2023-04-24T03:06:28;22.08;;;15.32;;
23782;SDS011;12071;50.850;4.446;2023-04-24T03:08:56;25.55;;;16.08;;
23782;SDS011;12071;50.850;4.446;2023-04-24T03:11:21;24.85;;;15.40;;
23782;SDS011;12071;50.850;4.446;2023-04-24T03:13:47;26.23;;;14.38;;
23782;SDS011;12071;50.850;4.446;2023-04-24T03:16:13;23.08;;;14.75;;
23782;SDS011;12071;50.850;4.446;2023-04-24T03:18:38;25.40;;;14.82;;
23782;SDS011;12071;50.850;4.446;2023-04-24T03:21:04;26.80;;;13.82;;
23782;SDS011;12071;50.850;4.446;2023-04-24T03:23:30;17.60;;;11.45;;
23782;SDS011;12071;50.850;4.446;2023-04-24T03:25:56;19.45;;;12.63;;
23782;SDS011;12071;50.850;4.446;2023-04-24T03:28:21;17.77;;;12.32;;
23782;SDS011;12071;50.850;4.446;2023-04-24T03:30:47;16.40;;;12.00;;
23782;SDS011;12071;50.850;4.446;2023-04-24T03:33:12;21.42;;;13.07;;
23782;SDS011;12071;50.850;4.446;2023-04-24T03:35:38;16.05;;;12.82;;
23782;SDS011;12071;50.850;4.446;2023-04-24T03:38:04;15.95;;;12.50;;
23782;SDS011;12071;50.850;4.446;2023-04-24T03:40:29;18.35;;;12.88;;
23782;SDS011;12071;50.850;4.446;2023-04-24T03:42:55;16.85;;;12.02;;
23782;SDS011;12071;50.850;4.446;2023-04-24T03:45:21;21.70;;;11.20;;
23782;SDS011;12071;50.850;4.446;2023-04-24T03:47:47;18.92;;;11.50;;
23782;SDS011;12071;50.850;4.446;2023-04-24T03:50:12;17.52;;;11.07;;
23782;SDS011;12071;50.850;4.446;2023-04-24T03:52:38;19.65;;;11.35;;
23782;SDS011;12071;50.850;4.446;2023-04-24T03:55:04;14.55;;;10.30;;
23782;SDS011;12071;50.850;4.446;2023-04-24T03:57:31;20.92;;;10.65;;
23782;SDS011;12071;50.850;4.446;2023-04-24T03:59:56;18.63;;;10.90;;
23782;SDS011;12071;50.850;4.446;2023-04-24T04:02:22;15.68;;;10.20;;
23782;SDS011;12071;50.850;4.446;2023-04-24T04:04:48;15.55;;;10.43;;
23782;SDS011;12071;50.850;4.446;2023-04-24T04:07:13;14.75;;;10.25;;
23782;SDS011;12071;50.850;4.446;2023-04-24T04:09:39;16.58;;;10.02;;
23782;SDS011;12071;50.850;4.446;2023-04-24T04:12:05;13.93;;;10.23;;
23782;SDS011;12071;50.850;4.446;2023-04-24T04:14:30;14.20;;;9.95;;
23782;SDS011;12071;50.850;4.446;2023-04-24T04:16:56;15.30;;;9.52;;
23782;SDS011;12071;50.850;4.446;2023-04-24T04:19:22;15.20;;;9.48;;
23782;SDS011;12071;50.850;4.446;2023-04-24T04:21:47;13.68;;;9.02;;
23782;SDS011;12071;50.850;4.446;2023-04-24T04:24:18;13.90;;;8.23;;
23782;SDS011;12071;50.850;4.446;2023-04-24T04:26:45;14.50;;;8.73;;
23782;SDS011;12071;50.850;4.446;2023-04-24T04:29:12;13.30;;;9.15;;
23782;SDS011;12071;50.850;4.446;2023-04-24T04:31:38;11.75;;;8.23;;
23782;SDS011;12071;50.850;4.446;2023-04-24T04:34:04;12.45;;;9.23;;
23782;SDS011;12071;50.850;4.446;2023-04-24T04:36:30;12.85;;;9.10;;
23782;SDS011;12071;50.850;4.446;2023-04-24T04:38:56;10.55;;;8.75;;
23782;SDS011;12071;50.850;4.446;2023-04-24T04:41:24;14.10;;;8.52;;
23782;SDS011;12071;50.850;4.446;2023-04-24T04:43:50;12.00;;;8.52;;
23782;SDS011;12071;50.850;4.446;2023-04-24T04:46:15;12.30;;;8.35;;
23782;SDS011;12071;50.850;4.446;2023-04-24T04:48:41;11.02;;;7.65;;
23782;SDS011;12071;50.850;4.446;2023-04-24T04:51:07;12.95;;;8.63;;
23782;SDS011;12071;50.850;4.446;2023-04-24T04:53:32;11.57;;;8.13;;
23782;SDS011;12071;50.850;4.446;2023-04-24T04:55:58;12.38;;;8.95;;
23782;SDS011;12071;50.850;4.446;2023-04-24T04:58:24;14.20;;;8.93;;
23782;SDS011;12071;50.850;4.446;2023-04-24T05:00:50;16.05;;;9.63;;
23782;SDS011;12071;50.850;4.446;2023-04-24T05:03:16;15.68;;;10.27;;
23782;SDS011;12071;50.850;4.446;2023-04-24T05:05:41;15.80;;;11.00;;
23782;SDS011;12071;50.850;4.446;2023-04-24T05:08:07;16.48;;;10.40;;
23782;SDS011;12071;50.850;4.446;2023-04-24T05:10:33;19.85;;;12.05;;
23782;SDS011;12071;50.850;4.446;2023-04-24T05:12:59;20.90;;;12.98;;
23782;SDS011;12071;50.850;4.446;2023-04-24T05:15:25;21.55;;;12.57;;
23782;SDS011;12071;50.850;4.446;2023-04-24T05:17:51;18.73;;;12.90;;
23782;SDS011;12071;50.850;4.446;2023-04-24T05:20:17;21.13;;;13.82;;
23782;SDS011;12071;50.850;4.446;2023-04-24T05:22:42;22.95;;;13.82;;
23782;SDS011;12071;50.850;4.446;2023-04-24T05:25:08;22.13;;;12.82;;
23782;SDS011;12071;50.850;4.446;2023-04-24T05:27:34;25.13;;;14.88;;
23782;SDS011;12071;50.850;4.446;2023-04-24T05:30:00;21.98;;;13.90;;
23782;SDS011;12071;50.850;4.446;2023-04-24T05:32:25;24.55;;;14.57;;
23782;SDS011;12071;50.850;4.446;2023-04-24T05:34:52;19.83;;;14.00;;
23782;SDS011;12071;50.850;4.446;2023-04-24T05:37:17;21.60;;;14.35;;
23782;SDS011;12071;50.850;4.446;2023-04-24T05:39:43;22.40;;;14.18;;
23782;SDS011;12071;50.850;4.446;2023-04-24T05:42:08;23.25;;;13.75;;
23782;SDS011;12071;50.850;4.446;2023-04-24T05:44:34;19.92;;;13.70;;
23782;SDS011;12071;50.850;4.446;2023-04-24T05:47:00;23.52;;;12.93;;
23782;SDS011;12071;50.850;4.446;2023-04-24T05:49:26;21.35;;;14.05;;
23782;SDS011;12071;50.850;4.446;2023-04-24T05:51:52;22.05;;;14.25;;
23782;SDS011;12071;50.850;4.446;2023-04-24T05:54:17;22.05;;;14.35;;
23782;SDS011;12071;50.850;4.446;2023-04-24T05:56:43;27.13;;;15.85;;
23782;SDS011;12071;50.850;4.446;2023-04-24T05:59:09;19.83;;;13.48;;
23782;SDS011;12071;50.850;4.446;2023-04-24T06:01:35;24.90;;;14.07;;
23782;SDS011;12071;50.850;4.446;2023-04-24T06:04:02;21.63;;;14.38;;
23782;SDS011;12071;50.850;4.446;2023-04-24T06:06:28;20.33;;;13.18;;
23782;SDS011;12071;50.850;4.446;2023-04-24T06:08:54;23.15;;;13.93;;
23782;SDS011;12071;50.850;4.446;2023-04-24T06:11:20;22.33;;;13.52;;
23782;SDS011;12071;50.850;4.446;2023-04-24T06:13:46;30.13;;;14.05;;
23782;SDS011;12071;50.850;4.446;2023-04-24T06:16:12;25.63;;;15.60;;
23782;SDS011;12071;50.850;4.446;2023-04-24T06:18:38;21.85;;;13.23;;
23782;SDS011;12071;50.850;4.446;2023-04-24T06:21:03;24.80;;;14.43;;
23782;SDS011;12071;50.850;4.446;2023-04-24T06:23:29;23.83;;;14.35;;
23782;SDS011;12071;50.850;4.446;2023-04-24T06:25:57;20.83;;;13.43;;
23782;SDS011;12071;50.850;4.446;2023-04-24T06:28:23;27.77;;;15.75;;
23782;SDS011;12071;50.850;4.446;2023-04-24T06:30:48;27.88;;;16.30;;
23782;SDS011;12071;50.850;4.446;2023-04-24T06:33:15;26.50;;;16.10;;
23782;SDS011;12071;50.850;4.446;2023-04-24T06:35:41;28.27;;;17.02;;
23782;SDS011;12071;50.850;4.446;2023-04-24T06:38:07;26.77;;;16.65;;
23782;SDS011;12071;50.850;4.446;2023-04-24T06:40:33;28.17;;;16.67;;
23782;SDS011;12071;50.850;4.446;2023-04-24T06:42:58;32.13;;;18.73;;
23782;SDS011;12071;50.850;4.446;2023-04-24T06:45:25;27.75;;;17.75;;
23782;SDS011;12071;50.850;4.446;2023-04-24T06:47:50;26.90;;;16.83;;
23782;SDS011;12071;50.850;4.446;2023-04-24T06:50:16;25.17;;;17.13;;
23782;SDS011;12071;50.850;4.446;2023-04-24T06:52:42;35.20;;;18.05;;
23782;SDS011;12071;50.850;4.446;2023-04-24T06:55:09;30.25;;;17.95;;
23782;SDS011;12071;50.850;4.446;2023-04-24T06:57:36;36.47;;;18.33;;
23782;SDS011;12071;50.850;4.446;2023-04-24T07:00:02;27.77;;;17.52;;
23782;SDS011;12071;50.850;4.446;2023-04-24T07:02:28;28.08;;;18.67;;
23782;SDS011;12071;50.850;4.446;2023-04-24T07:04:54;30.92;;;17.38;;
23782;SDS011;12071;50.850;4.446;2023-04-24T07:07:19;32.88;;;18.83;;
23782;SDS011;12071;50.850;4.446;2023-04-24T07:09:45;31.60;;;16.77;;
23782;SDS011;12071;50.850;4.446;2023-04-24T07:12:11;35.78;;;18.40;;
23782;SDS011;12071;50.850;4.446;2023-04-24T07:14:37;31.25;;;17.25;;
23782;SDS011;12071;50.850;4.446;2023-04-24T07:17:03;32.30;;;18.58;;
23782;SDS011;12071;50.850;4.446;2023-04-24T07:19:30;34.88;;;19.33;;
23782;SDS011;12071;50.850;4.446;2023-04-24T07:21:56;28.67;;;17.95;;
23782;SDS011;12071;50.850;4.446;2023-04-24T07:24:23;28.48;;;17.73;;
23782;SDS011;12071;50.850;4.446;2023-04-24T07:26:50;31.63;;;16.48;;
23782;SDS011;12071;50.850;4.446;2023-04-24T07:29:17;33.63;;;16.50;;
23782;SDS011;12071;50.850;4.446;2023-04-24T07:31:43;29.08;;;17.05;;
23782;SDS011;12071;50.850;4.446;2023-04-24T07:34:08;28.05;;;15.05;;
23782;SDS011;12071;50.850;4.446;2023-04-24T07:36:34;31.13;;;13.60;;
23782;SDS011;12071;50.850;4.446;2023-04-24T07:39:00;24.00;;;14.20;;
23782;SDS011;12071;50.850;4.446;2023-04-24T07:41:26;17.00;;;11.27;;
23782;SDS011;12071;50.850;4.446;2023-04-24T07:43:53;21.33;;;11.10;;
23782;SDS011;12071;50.850;4.446;2023-04-24T07:46:18;16.55;;;10.48;;
23782;SDS011;12071;50.850;4.446;2023-04-24T07:48:45;19.17;;;9.52;;
23782;SDS011;12071;50.850;4.446;2023-04-24T07:51:14;19.73;;;9.73;;
23782;SDS011;12071;50.850;4.446;2023-04-24T07:53:40;19.13;;;8.90;;
23782;SDS011;12071;50.850;4.446;2023-04-24T07:56:06;18.05;;;9.32;;
23782;SDS011;12071;50.850;4.446;2023-04-24T07:58:32;18.60;;;9.57;;
23782;SDS011;12071;50.850;4.446;2023-04-24T08:00:58;17.38;;;10.00;;
23782;SDS011;12071;50.850;4.446;2023-04-24T08:03:24;20.50;;;10.32;;
23782;SDS011;12071;50.850;4.446;2023-04-24T08:05:50;16.67;;;11.52;;
23782;SDS011;12071;50.850;4.446;2023-04-24T08:08:16;18.65;;;11.05;;
23782;SDS011;12071;50.850;4.446;2023-04-24T08:10:41;21.42;;;10.93;;
23782;SDS011;12071;50.850;4.446;2023-04-24T08:13:07;17.50;;;11.05;;
23782;SDS011;12071;50.850;4.446;2023-04-24T08:15:33;16.63;;;10.25;;
23782;SDS011;12071;50.850;4.446;2023-04-24T08:17:59;23.70;;;11.43;;
23782;SDS011;12071;50.850;4.446;2023-04-24T08:20:24;18.48;;;10.30;;
23782;SDS011;12071;50.850;4.446;2023-04-24T08:22:50;14.32;;;9.63;;
23782;SDS011;12071;50.850;4.446;2023-04-24T08:25:16;23.90;;;9.85;;
23782;SDS011;12071;50.850;4.446;2023-04-24T08:27:42;21.92;;;10.55;;
23782;SDS011;12071;50.850;4.446;2023-04-24T08:30:08;12.68;;;6.55;;
23782;SDS011;12071;50.850;4.446;2023-04-24T08:32:34;12.85;;;7.63;;
23782;SDS011;12071;50.850;4.446;2023-04-24T08:35:00;13.32;;;8.02;;
23782;SDS011;12071;50.850;4.446;2023-04-24T08:37:26;12.75;;;7.10;;
23782;SDS011;12071;50.850;4.446;2023-04-24T08:39:52;18.80;;;8.45;;
23782;SDS011;12071;50.850;4.446;2023-04-24T08:42:18;19.23;;;7.15;;
23782;SDS011;12071;50.850;4.446;2023-04-24T08:44:45;16.83;;;7.53;;
23782;SDS011;12071;50.850;4.446;2023-04-24T08:47:13;16.88;;;7.13;;
23782;SDS011;12071;50.850;4.446;2023-04-24T08:49:40;18.27;;;7.13;;
23782;SDS011;12071;50.850;4.446;2023-04-24T08:52:05;19.67;;;7.70;;
23782;SDS011;12071;50.850;4.446;2023-04-24T08:54:31;16.95;;;6.40;;
23782;SDS011;12071;50.850;4.446;2023-04-24T08:56:59;14.30;;;5.90;;
23782;SDS011;12071;50.850;4.446;2023-04-24T08:59:26;16.17;;;5.70;;
23782;SDS011;12071;50.850;4.446;2023-04-24T09:01:59;16.70;;;6.35;;
23782;SDS011;12071;50.850;4.446;2023-04-24T09:04:25;11.52;;;5.60;;
23782;SDS011;12071;50.850;4.446;2023-04-24T09:06:54;15.20;;;5.38;;
23782;SDS011;12071;50.850;4.446;2023-04-24T09:09:22;14.88;;;5.72;;
23782;SDS011;12071;50.850;4.446;2023-04-24T09:11:52;11.52;;;5.13;;
23782;SDS011;12071;50.850;4.446;2023-04-24T09:14:20;9.77;;;5.00;;
23782;SDS011;12071;50.850;4.446;2023-04-24T09:16:47;18.08;;;5.30;;
23782;SDS011;12071;50.850;4.446;2023-04-24T09:19:13;8.05;;;4.93;;
23782;SDS011;12071;50.850;4.446;2023-04-24T09:21:38;13.05;;;4.72;;
23782;SDS011;12071;50.850;4.446;2023-04-24T09:24:07;9.10;;;4.80;;
23782;SDS011;12071;50.850;4.446;2023-04-24T09:26:42;11.25;;;4.63;;
23782;SDS011;12071;50.850;4.446;2023-04-24T09:29:13;14.15;;;4.57;;
23782;SDS011;12071;50.850;4.446;2023-04-24T09:31:43;10.80;;;4.57;;
23782;SDS011;12071;50.850;4.446;2023-04-24T09:34:10;7.18;;;3.75;;
23782;SDS011;12071;50.850;4.446;2023-04-24T09:36:37;7.53;;;3.80;;
23782;SDS011;12071;50.850;4.446;2023-04-24T09:39:06;15.23;;;4.70;;
23782;SDS011;12071;50.850;4.446;2023-04-24T09:44:17;8.38;;;4.18;;
23782;SDS011;12071;50.850;4.446;2023-04-24T09:46:49;9.68;;;4.15;;
23782;SDS011;12071;50.850;4.446;2023-04-24T09:49:20;7.97;;;3.95;;
23782;SDS011;12071;50.850;4.446;2023-04-24T09:51:50;9.20;;;3.75;;
23782;SDS011;12071;50.850;4.446;2023-04-24T09:54:19;13.55;;;4.20;;
23782;SDS011;12071;50.850;4.446;2023-04-24T09:56:47;12.27;;;3.80;;
23782;SDS011;12071;50.850;4.446;2023-04-24T09:59:14;8.50;;;3.17;;
23782;SDS011;12071;50.850;4.446;2023-04-24T10:01:41;11.32;;;3.75;;
23782;SDS011;12071;50.850;4.446;2023-04-24T10:04:16;7.38;;;2.90;;
23782;SDS011;12071;50.850;4.446;2023-04-24T10:06:43;6.57;;;3.40;;
23782;SDS011;12071;50.850;4.446;2023-04-24T10:09:09;10.10;;;3.90;;
23782;SDS011;12071;50.850;4.446;2023-04-24T10:11:37;9.88;;;3.78;;
23782;SDS011;12071;50.850;4.446;2023-04-24T10:14:06;8.48;;;3.60;;
23782;SDS011;12071;50.850;4.446;2023-04-24T10:16:32;10.90;;;3.92;;
23782;SDS011;12071;50.850;4.446;2023-04-24T10:18:58;8.07;;;3.85;;
23782;SDS011;12071;50.850;4.446;2023-04-24T10:21:25;6.10;;;3.70;;
23782;SDS011;12071;50.850;4.446;2023-04-24T10:23:51;7.13;;;3.55;;
23782;SDS011;12071;50.850;4.446;2023-04-24T10:26:18;7.82;;;4.32;;
23782;SDS011;12071;50.850;4.446;2023-04-24T10:28:45;11.40;;;3.60;;
23782;SDS011;12071;50.850;4.446;2023-04-24T10:31:16;8.60;;;3.60;;
23782;SDS011;12071;50.850;4.446;2023-04-24T10:33:43;9.30;;;4.43;;
23782;SDS011;12071;50.850;4.446;2023-04-24T10:36:10;6.90;;;3.58;;
23782;SDS011;12071;50.850;4.446;2023-04-24T10:38:39;9.65;;;4.20;;
23782;SDS011;12071;50.850;4.446;2023-04-24T10:41:11;12.23;;;4.43;;
23782;SDS011;12071;50.850;4.446;2023-04-24T10:43:44;9.65;;;4.22;;
23782;SDS011;12071;50.850;4.446;2023-04-24T10:46:10;5.40;;;3.65;;
23782;SDS011;12071;50.850;4.446;2023-04-24T10:48:44;7.72;;;3.88;;
23782;SDS011;12071;50.850;4.446;2023-04-24T10:51:21;7.55;;;4.10;;
23782;SDS011;12071;50.850;4.446;2023-04-24T10:53:49;8.93;;;3.80;;
23782;SDS011;12071;50.850;4.446;2023-04-24T10:56:16;8.73;;;4.45;;
23782;SDS011;12071;50.850;4.446;2023-04-24T10:58:49;7.15;;;3.97;;
23782;SDS011;12071;50.850;4.446;2023-04-24T11:01:27;5.57;;;3.97;;
23782;SDS011;12071;50.850;4.446;2023-04-24T11:03:54;10.00;;;4.43;;
23782;SDS011;12071;50.850;4.446;2023-04-24T11:06:31;11.02;;;4.28;;
23782;SDS011;12071;50.850;4.446;2023-04-24T11:09:09;10.15;;;4.63;;
23782;SDS011;12071;50.850;4.446;2023-04-24T11:11:38;9.60;;;4.28;;
23782;SDS011;12071;50.850;4.446;2023-04-24T11:14:09;10.43;;;4.55;;
23782;SDS011;12071;50.850;4.446;2023-04-24T11:16:37;11.20;;;4.88;;
23782;SDS011;12071;50.850;4.446;2023-04-24T11:21:38;12.73;;;4.90;;
23782;SDS011;12071;50.850;4.446;2023-04-24T11:27:21;10.02;;;4.57;;
23782;SDS011;12071;50.850;4.446;2023-04-24T11:37:46;8.40;;;4.65;;
23782;SDS011;12071;50.850;4.446;2023-04-24T11:40:15;8.05;;;4.53;;
23782;SDS011;12071;50.850;4.446;2023-04-24T11:42:43;7.00;;;4.18;;
23782;SDS011;12071;50.850;4.446;2023-04-24T11:45:13;9.38;;;4.28;;
23782;SDS011;12071;50.850;4.446;2023-04-24T11:47:41;9.02;;;4.55;;
23782;SDS011;12071;50.850;4.446;2023-04-24T11:50:08;8.18;;;4.80;;
23782;SDS011;12071;50.850;4.446;2023-04-24T11:52:40;8.55;;;4.90;;
23782;SDS011;12071;50.850;4.446;2023-04-24T11:55:07;7.60;;;4.45;;
23782;SDS011;12071;50.850;4.446;2023-04-24T11:57:39;10.82;;;5.40;;
23782;SDS011;12071;50.850;4.446;2023-04-24T12:00:14;10.52;;;5.10;;
23782;SDS011;12071;50.850;4.446;2023-04-24T12:02:51;9.07;;;4.38;;
23782;SDS011;12071;50.850;4.446;2023-04-24T12:07:46;8.32;;;5.00;;
23782;SDS011;12071;50.850;4.446;2023-04-24T12:10:12;8.35;;;4.70;;
23782;SDS011;12071;50.850;4.446;2023-04-24T12:12:37;4.45;;;3.50;;
23782;SDS011;12071;50.850;4.446;2023-04-24T12:15:07;9.05;;;4.80;;
23782;SDS011;12071;50.850;4.446;2023-04-24T12:17:33;8.20;;;4.78;;
23782;SDS011;12071;50.850;4.446;2023-04-24T12:20:01;9.00;;;5.18;;
23782;SDS011;12071;50.850;4.446;2023-04-24T12:22:42;7.05;;;4.70;;
23782;SDS011;12071;50.850;4.446;2023-04-24T12:25:09;6.72;;;5.35;;
23782;SDS011;12071;50.850;4.446;2023-04-24T12:27:35;8.52;;;5.15;;
23782;SDS011;12071;50.850;4.446;2023-04-24T12:30:03;6.20;;;4.93;;
23782;SDS011;12071;50.850;4.446;2023-04-24T12:32:30;8.60;;;4.85;;
23782;SDS011;12071;50.850;4.446;2023-04-24T12:34:57;4.75;;;3.92;;
23782;SDS011;12071;50.850;4.446;2023-04-24T12:37:24;7.28;;;4.40;;
23782;SDS011;12071;50.850;4.446;2023-04-24T12:40:04;7.85;;;4.72;;
23782;SDS011;12071;50.850;4.446;2023-04-24T12:42:34;7.90;;;4.38;;
23782;SDS011;12071;50.850;4.446;2023-04-24T12:45:06;5.85;;;4.03;;
23782;SDS011;12071;50.850;4.446;2023-04-24T12:47:33;7.30;;;4.30;;
23782;SDS011;12071;50.850;4.446;2023-04-24T12:50:00;6.80;;;3.85;;
23782;SDS011;12071;50.850;4.446;2023-04-24T12:52:27;6.50;;;3.83;;
23782;SDS011;12071;50.850;4.446;2023-04-24T12:54:54;9.20;;;3.60;;
23782;SDS011;12071;50.850;4.446;2023-04-24T12:57:22;8.25;;;3.58;;
23782;SDS011;12071;50.850;4.446;2023-04-24T12:59:48;7.80;;;3.58;;
23782;SDS011;12071;50.850;4.446;2023-04-24T13:02:13;5.38;;;3.58;;
23782;SDS011;12071;50.850;4.446;2023-04-24T13:04:42;4.90;;;3.60;;
23782;SDS011;12071;50.850;4.446;2023-04-24T13:07:12;4.25;;;3.40;;
23782;SDS011;12071;50.850;4.446;2023-04-24T13:09:38;7.15;;;3.47;;
23782;SDS011;12071;50.850;4.446;2023-04-24T13:12:04;8.70;;;3.90;;
23782;SDS011;12071;50.850;4.446;2023-04-24T13:14:33;6.20;;;3.30;;
23782;SDS011;12071;50.850;4.446;2023-04-24T13:16:59;5.65;;;2.95;;
23782;SDS011;12071;50.850;4.446;2023-04-24T13:19:25;6.82;;;3.30;;
23782;SDS011;12071;50.850;4.446;2023-04-24T13:21:52;7.75;;;3.30;;
23782;SDS011;12071;50.850;4.446;2023-04-24T13:24:20;8.70;;;3.53;;
23782;SDS011;12071;50.850;4.446;2023-04-24T13:26:46;6.95;;;3.30;;
23782;SDS011;12071;50.850;4.446;2023-04-24T13:29:11;6.82;;;3.15;;
23782;SDS011;12071;50.850;4.446;2023-04-24T13:31:37;8.93;;;3.45;;
23782;SDS011;12071;50.850;4.446;2023-04-24T13:34:02;4.97;;;3.10;;
23782;SDS011;12071;50.850;4.446;2023-04-24T13:36:28;4.50;;;2.67;;
23782;SDS011;12071;50.850;4.446;2023-04-24T13:38:55;5.35;;;2.83;;
23782;SDS011;12071;50.850;4.446;2023-04-24T13:41:21;6.10;;;2.50;;
23782;SDS011;12071;50.850;4.446;2023-04-24T13:43:46;7.30;;;3.00;;
23782;SDS011;12071;50.850;4.446;2023-04-24T13:46:12;6.78;;;2.50;;
23782;SDS011;12071;50.850;4.446;2023-04-24T13:48:38;7.38;;;2.45;;
23782;SDS011;12071;50.850;4.446;2023-04-24T13:51:03;5.18;;;2.35;;
23782;SDS011;12071;50.850;4.446;2023-04-24T13:53:29;2.80;;;1.95;;
23782;SDS011;12071;50.850;4.446;2023-04-24T13:55:54;4.53;;;2.50;;
23782;SDS011;12071;50.850;4.446;2023-04-24T13:58:20;5.70;;;2.40;;
23782;SDS011;12071;50.850;4.446;2023-04-24T14:00:46;4.88;;;2.35;;
23782;SDS011;12071;50.850;4.446;2023-04-24T14:03:12;5.18;;;2.45;;
23782;SDS011;12071;50.850;4.446;2023-04-24T14:05:37;6.88;;;2.38;;
23782;SDS011;12071;50.850;4.446;2023-04-24T14:08:03;4.93;;;2.13;;
23782;SDS011;12071;50.850;4.446;2023-04-24T14:10:29;4.60;;;2.00;;
23782;SDS011;12071;50.850;4.446;2023-04-24T14:12:55;3.88;;;1.70;;
23782;SDS011;12071;50.850;4.446;2023-04-24T14:15:21;3.30;;;2.10;;
23782;SDS011;12071;50.850;4.446;2023-04-24T14:17:47;5.38;;;2.03;;
23782;SDS011;12071;50.850;4.446;2023-04-24T14:20:13;2.53;;;1.40;;
23782;SDS011;12071;50.850;4.446;2023-04-24T14:22:39;2.30;;;1.35;;
23782;SDS011;12071;50.850;4.446;2023-04-24T14:25:05;6.72;;;1.70;;
23782;SDS011;12071;50.850;4.446;2023-04-24T14:27:31;5.97;;;1.60;;
23782;SDS011;12071;50.850;4.446;2023-04-24T14:29:59;3.40;;;1.67;;
23782;SDS011;12071;50.850;4.446;2023-04-24T14:32:25;4.20;;;2.03;;
23782;SDS011;12071;50.850;4.446;2023-04-24T14:34:51;5.57;;;1.67;;
23782;SDS011;12071;50.850;4.446;2023-04-24T14:37:16;7.07;;;2.53;;
23782;SDS011;12071;50.850;4.446;2023-04-24T14:39:42;5.65;;;2.25;;
23782;SDS011;12071;50.850;4.446;2023-04-24T14:42:08;4.75;;;2.00;;
23782;SDS011;12071;50.850;4.446;2023-04-24T14:44:33;6.32;;;2.10;;
23782;SDS011;12071;50.850;4.446;2023-04-24T14:46:59;4.93;;;1.98;;